sensor_id;sensor_type;location;lat;lon;timestamp;temperature;humidity
37158;DHT22;23050;51.776;22.638;2022-10-26T15:59:50;11.30;99.90
37158;DHT22;23050;51.776;22.638;2022-10-26T16:02:16;11.10;99.90
37158;DHT22;23050;51.776;22.638;2022-10-26T16:04:42;11.00;99.90
37158;DHT22;23050;51.776;22.638;2022-10-26T16:07:12;10.90;99.90
37158;DHT22;23050;51.776;22.638;2022-10-26T16:09:39;10.80;99.90
37158;DHT22;23050;51.776;22.638;2022-10-26T16:12:07;10.80;99.90
37158;DHT22;23050;51.776;22.638;2022-10-26T16:14:34;10.70;99.90
37158;DHT22;23050;51.776;22.638;2022-10-26T16:17:00;10.50;99.90
37158;DHT22;23050;51.776;22.638;2022-10-26T16:19:25;10.50;99.90
37158;DHT22;23050;51.776;22.638;2022-10-26T16:21:51;10.50;99.90
37158;DHT22;23050;51.776;22.638;2022-10-26T16:24:16;10.40;99.90
37158;DHT22;23050;51.776;22.638;2022-10-26T16:26:42;10.30;99.90
37158;DHT22;23050;51.776;22.638;2022-10-26T16:29:07;10.20;99.90
37158;DHT22;23050;51.776;22.638;2022-10-26T16:31:33;10.20;99.90
37158;DHT22;23050;51.776;22.638;2022-10-26T16:33:59;10.10;99.90
37158;DHT22;23050;51.776;22.638;2022-10-26T16:36:26;10.00;99.90
37158;DHT22;23050;51.776;22.638;2022-10-26T16:38:51;10.10;99.90
37158;DHT22;23050;51.776;22.638;2022-10-26T16:41:17;10.00;99.90
37158;DHT22;23050;51.776;22.638;2022-10-26T16:43:43;9.80;99.90
37158;DHT22;23050;51.776;22.638;2022-10-26T16:46:13;9.80;99.90
37158;DHT22;23050;51.776;22.638;2022-10-26T16:48:40;9.70;99.90
37158;DHT22;23050;51.776;22.638;2022-10-26T16:51:14;9.60;99.90
37158;DHT22;23050;51.776;22.638;2022-10-26T16:53:40;9.60;99.90
37158;DHT22;23050;51.776;22.638;2022-10-26T16:56:09;9.50;99.90
37158;DHT22;23050;51.776;22.638;2022-10-26T16:58:35;9.40;99.90
37158;DHT22;23050;51.776;22.638;2022-10-26T17:01:01;9.40;99.90
37158;DHT22;23050;51.776;22.638;2022-10-26T17:03:26;9.40;99.90
37158;DHT22;23050;51.776;22.638;2022-10-26T17:06:03;9.30;99.90
37158;DHT22;23050;51.776;22.638;2022-10-26T17:08:30;9.30;99.90
37158;DHT22;23050;51.776;22.638;2022-10-26T17:11:10;9.30;99.90
37158;DHT22;23050;51.776;22.638;2022-10-26T17:13:37;9.40;99.90
37158;DHT22;23050;51.776;22.638;2022-10-26T17:16:09;9.40;99.90
37158;DHT22;23050;51.776;22.638;2022-10-26T17:18:35;9.50;99.90
37158;DHT22;23050;51.776;22.638;2022-10-26T17:21:00;9.60;99.90
37158;DHT22;23050;51.776;22.638;2022-10-26T17:23:26;9.70;99.90
37158;DHT22;23050;51.776;22.638;2022-10-26T17:25:52;9.70;99.90
37158;DHT22;23050;51.776;22.638;2022-10-26T17:28:18;9.80;99.90
37158;DHT22;23050;51.776;22.638;2022-10-26T17:30:44;9.90;99.90
37158;DHT22;23050;51.776;22.638;2022-10-26T17:33:10;9.90;99.90
37158;DHT22;23050;51.776;22.638;2022-10-26T17:35:36;10.00;99.90
37158;DHT22;23050;51.776;22.638;2022-10-26T17:38:02;10.00;99.90
37158;DHT22;23050;51.776;22.638;2022-10-26T17:40:27;10.10;99.90
37158;DHT22;23050;51.776;22.638;2022-10-26T17:42:53;10.20;99.90
37158;DHT22;23050;51.776;22.638;2022-10-26T17:45:19;10.30;99.90
37158;DHT22;23050;51.776;22.638;2022-10-26T17:47:44;10.30;99.90
37158;DHT22;23050;51.776;22.638;2022-10-26T17:50:10;10.40;99.90
37158;DHT22;23050;51.776;22.638;2022-10-26T17:52:36;10.30;99.90
37158;DHT22;23050;51.776;22.638;2022-10-26T17:55:02;10.20;99.90
37158;DHT22;23050;51.776;22.638;2022-10-26T17:57:28;10.30;99.90
37158;DHT22;23050;51.776;22.638;2022-10-26T17:59:53;10.30;99.90
37158;DHT22;23050;51.776;22.638;2022-10-26T18:02:19;10.40;99.90
37158;DHT22;23050;51.776;22.638;2022-10-26T18:04:44;10.40;99.90
37158;DHT22;23050;51.776;22.638;2022-10-26T18:07:11;10.40;99.90
37158;DHT22;23050;51.776;22.638;2022-10-26T18:09:37;10.40;99.90
37158;DHT22;23050;51.776;22.638;2022-10-26T18:12:03;10.40;99.90
37158;DHT22;23050;51.776;22.638;2022-10-26T18:14:28;10.40;99.90
37158;DHT22;23050;51.776;22.638;2022-10-26T18:16:54;10.50;99.90
37158;DHT22;23050;51.776;22.638;2022-10-26T18:19:20;10.50;99.90
37158;DHT22;23050;51.776;22.638;2022-10-26T18:21:45;10.40;99.90
37158;DHT22;23050;51.776;22.638;2022-10-26T18:24:11;10.40;99.90
37158;DHT22;23050;51.776;22.638;2022-10-26T18:26:37;10.30;99.90
37158;DHT22;23050;51.776;22.638;2022-10-26T18:29:03;10.20;99.90
37158;DHT22;23050;51.776;22.638;2022-10-26T18:31:30;10.30;99.90
37158;DHT22;23050;51.776;22.638;2022-10-26T18:33:58;10.20;99.90
37158;DHT22;23050;51.776;22.638;2022-10-26T18:36:25;10.10;99.90
37158;DHT22;23050;51.776;22.638;2022-10-26T18:38:51;10.10;99.90
37158;DHT22;23050;51.776;22.638;2022-10-26T18:41:18;10.00;99.90
37158;DHT22;23050;51.776;22.638;2022-10-26T18:43:46;9.90;99.90
37158;DHT22;23050;51.776;22.638;2022-10-26T18:46:28;9.90;99.90
37158;DHT22;23050;51.776;22.638;2022-10-26T18:48:55;9.80;99.90
37158;DHT22;23050;51.776;22.638;2022-10-26T18:51:23;9.80;99.90
37158;DHT22;23050;51.776;22.638;2022-10-26T18:53:50;9.80;99.90
37158;DHT22;23050;51.776;22.638;2022-10-26T18:56:20;9.80;99.90
37158;DHT22;23050;51.776;22.638;2022-10-26T18:58:50;9.80;99.90
37158;DHT22;23050;51.776;22.638;2022-10-26T19:01:18;9.80;99.90
37158;DHT22;23050;51.776;22.638;2022-10-26T19:03:44;9.90;99.90
37158;DHT22;23050;51.776;22.638;2022-10-26T19:06:16;9.80;99.90
37158;DHT22;23050;51.776;22.638;2022-10-26T19:08:43;9.80;99.90
37158;DHT22;23050;51.776;22.638;2022-10-26T19:11:11;9.80;99.90
37158;DHT22;23050;51.776;22.638;2022-10-26T19:13:37;9.80;99.90
37158;DHT22;23050;51.776;22.638;2022-10-26T19:16:21;9.70;99.90
37158;DHT22;23050;51.776;22.638;2022-10-26T19:18:48;9.70;99.90
37158;DHT22;23050;51.776;22.638;2022-10-26T19:21:20;9.70;99.90
37158;DHT22;23050;51.776;22.638;2022-10-26T19:23:51;9.60;99.90
37158;DHT22;23050;51.776;22.638;2022-10-26T19:26:19;9.60;99.90
37158;DHT22;23050;51.776;22.638;2022-10-26T19:28:45;9.60;99.90
37158;DHT22;23050;51.776;22.638;2022-10-26T19:31:13;9.50;99.90
37158;DHT22;23050;51.776;22.638;2022-10-26T19:33:39;9.50;99.90
37158;DHT22;23050;51.776;22.638;2022-10-26T19:36:10;9.50;99.90
37158;DHT22;23050;51.776;22.638;2022-10-26T19:38:36;9.50;99.90
37158;DHT22;23050;51.776;22.638;2022-10-26T19:41:10;9.40;99.90
37158;DHT22;23050;51.776;22.638;2022-10-26T19:43:36;9.30;99.90
37158;DHT22;23050;51.776;22.638;2022-10-26T19:48:36;9.10;99.90
37158;DHT22;23050;51.776;22.638;2022-10-26T19:51:01;9.10;99.90
37158;DHT22;23050;51.776;22.638;2022-10-26T19:53:27;8.90;99.90
37158;DHT22;23050;51.776;22.638;2022-10-26T19:55:55;8.80;99.90
37158;DHT22;23050;51.776;22.638;2022-10-26T19:58:24;8.70;99.90
37158;DHT22;23050;51.776;22.638;2022-10-26T20:00:53;8.60;99.90
37158;DHT22;23050;51.776;22.638;2022-10-26T20:03:19;8.60;99.90
37158;DHT22;23050;51.776;22.638;2022-10-26T20:05:45;8.60;99.90
37158;DHT22;23050;51.776;22.638;2022-10-26T20:08:10;8.50;99.90
37158;DHT22;23050;51.776;22.638;2022-10-26T20:10:40;8.50;99.90
37158;DHT22;23050;51.776;22.638;2022-10-26T20:13:09;8.40;99.90
37158;DHT22;23050;51.776;22.638;2022-10-26T20:15:34;8.40;99.90
37158;DHT22;23050;51.776;22.638;2022-10-26T20:18:00;8.20;99.90
37158;DHT22;23050;51.776;22.638;2022-10-26T20:20:26;8.20;99.90
37158;DHT22;23050;51.776;22.638;2022-10-26T20:22:51;8.20;99.90
37158;DHT22;23050;51.776;22.638;2022-10-26T20:25:17;8.10;99.90
37158;DHT22;23050;51.776;22.638;2022-10-26T20:27:43;8.00;99.90
